PWSweather.com
Personal Weather Stations
Station Observations
MARICOPA
Cobblestone Farms, Maricopa, AZ 85139

Cobblestone FarmsMaricopa, AZ 85139

Lat: 33.076, Lon: -112.0445

Elevation: 1148

Station Type: LaCrosse 2310/15

http://weather.azkiwis.net

Latest ConditionsUpdated 4:45:00 PM MST Saturday, Dec 3, 2016
Currently Today's Max Today's Min Today's Average
Temperature 66.7°F19.3°C 67.8°F19.9°C 35.4°F1.9°C 50.9°F10.5°C
Dew Point 24.3°F-4.3°C 27.5°F-2.5°C 21.2°F-6.0°C 24.2°F-4.3°C
Winds 1.2 mph NNW1.9 kmh NNW 4.6 mph N7.4 kmh N - 1.3 mph 2.1 kmh
Wind Gusts 1.2 mph1.9 kmh 9.2 mph14.8 kmh - -
Humidity 20% 57% 19% 38%
Pressure 29.90 in1012.5 mb 29.98 in1015.2 mb 29.89 in1012.2 mb -
Hour Temp Dew Point Humidity Winds Wind Gusts Pressure Precip Precip Rate Daily Precip Total
04:45 PM 66.7°F19.3°C 24.3°F-4.3°C 20% 1.2 mph NNW1.9 kmh NNW 1.2 mph1.9 kmh 29.90 in1012.5 mb - 0.00 in0.0 mm 0.00 in0.0 mm
04:30 PM 67.3°F19.6°C 24.9°F-3.9°C 20% 1.2 mph NW1.9 kmh NW 3.5 mph5.6 kmh 29.90 in1012.5 mb - 0.00 in0.0 mm 0.00 in0.0 mm
04:15 PM 67.7°F19.8°C 25.1°F-3.8°C 20% 3.5 mph WSW5.6 kmh WSW 3.5 mph5.6 kmh 29.89 in1012.2 mb - 0.00 in0.0 mm 0.00 in0.0 mm
04:00 PM 67.8°F19.9°C 25.2°F-3.8°C 20% 2.3 mph WSW3.7 kmh WSW 5.8 mph9.3 kmh 29.90 in1012.5 mb - 0.00 in0.0 mm 0.00 in0.0 mm
03:45 PM 67.8°F19.9°C 25.2°F-3.8°C 20% 3.5 mph WSW5.6 kmh WSW 5.8 mph9.3 kmh 29.89 in1012.2 mb - 0.00 in0.0 mm 0.00 in0.0 mm
03:30 PM 67.8°F19.9°C 25.2°F-3.8°C 20% 2.3 mph WSW3.7 kmh WSW 2.3 mph3.7 kmh 29.90 in1012.5 mb - 0.00 in0.0 mm 0.00 in0.0 mm
03:15 PM 67.8°F19.9°C 24.0°F-4.4°C 19% 2.3 mph WSW3.7 kmh WSW 3.5 mph5.6 kmh 29.90 in1012.5 mb - 0.00 in0.0 mm 0.00 in0.0 mm
03:00 PM 67.8°F19.9°C 25.2°F-3.8°C 20% Calm Calm 4.6 mph7.4 kmh 29.90 in1012.5 mb - 0.00 in0.0 mm 0.00 in0.0 mm
02:45 PM 67.5°F19.7°C 24.9°F-3.9°C 20% 1.2 mph WSW1.9 kmh WSW 4.6 mph7.4 kmh 29.90 in1012.5 mb - 0.00 in0.0 mm 0.00 in0.0 mm
02:30 PM 67.0°F19.4°C 25.7°F-3.5°C 21% 1.2 mph WNW1.9 kmh WNW 2.3 mph3.7 kmh 29.90 in1012.5 mb - 0.00 in0.0 mm 0.00 in0.0 mm
02:15 PM 66.4°F19.1°C 25.2°F-3.8°C 21% 4.6 mph WSW7.4 kmh WSW 8.1 mph13.0 kmh 29.90 in1012.5 mb - 0.00 in0.0 mm 0.00 in0.0 mm
02:00 PM 66.0°F18.9°C 26.0°F-3.3°C 22% 2.3 mph WSW3.7 kmh WSW 3.5 mph5.6 kmh 29.91 in1012.9 mb - 0.00 in0.0 mm 0.00 in0.0 mm
01:45 PM 65.8°F18.8°C 25.9°F-3.4°C 22% 1.2 mph WSW1.9 kmh WSW 3.5 mph5.6 kmh 29.92 in1013.2 mb - 0.00 in0.0 mm 0.00 in0.0 mm
01:30 PM 65.5°F18.6°C 25.6°F-3.6°C 22% 4.6 mph WSW7.4 kmh WSW 6.9 mph11.1 kmh 29.93 in1013.5 mb - 0.00 in0.0 mm 0.00 in0.0 mm
01:15 PM 65.5°F18.6°C 25.6°F-3.6°C 22% 4.6 mph WSW7.4 kmh WSW 5.8 mph9.3 kmh 29.93 in1013.5 mb - 0.00 in0.0 mm 0.00 in0.0 mm
01:00 PM 65.3°F18.5°C 25.4°F-3.7°C 22% Calm Calm 4.6 mph7.4 kmh 29.93 in1013.5 mb - 0.00 in0.0 mm 0.00 in0.0 mm
12:45 PM 65.3°F18.5°C 25.4°F-3.7°C 22% 3.5 mph W5.6 kmh W 6.9 mph11.1 kmh 29.93 in1013.5 mb - 0.00 in0.0 mm 0.00 in0.0 mm
12:30 PM 65.0°F18.3°C 26.3°F-3.2°C 23% 3.5 mph N5.6 kmh N 8.1 mph13.0 kmh 29.94 in1013.9 mb - 0.00 in0.0 mm 0.00 in0.0 mm
12:15 PM 64.6°F18.1°C 25.9°F-3.4°C 23% 2.3 mph NNE3.7 kmh NNE 3.5 mph5.6 kmh 29.94 in1013.9 mb - 0.00 in0.0 mm 0.00 in0.0 mm
12:00 PM 64.7°F18.2°C 26.0°F-3.3°C 23% 4.6 mph N7.4 kmh N 9.2 mph14.8 kmh 29.95 in1014.2 mb - 0.00 in0.0 mm 0.00 in0.0 mm
11:45 AM 64.0°F17.8°C 26.5°F-3.1°C 24% 3.5 mph SE5.6 kmh SE -- 29.96 in1014.6 mb - 0.00 in0.0 mm 0.00 in0.0 mm
11:30 AM 64.0°F17.8°C 27.5°F-2.5°C 25% 2.3 mph SE3.7 kmh SE 8.1 mph13.0 kmh 29.96 in1014.6 mb - 0.00 in0.0 mm 0.00 in0.0 mm
11:15 AM 63.0°F17.2°C 27.5°F-2.5°C 26% 1.2 mph NE1.9 kmh NE 3.5 mph5.6 kmh 29.97 in1014.9 mb - 0.00 in0.0 mm 0.00 in0.0 mm
11:00 AM 61.7°F16.5°C 27.3°F-2.6°C 27% 2.3 mph SE3.7 kmh SE 3.5 mph5.6 kmh 29.97 in1014.9 mb - 0.00 in0.0 mm 0.00 in0.0 mm
10:45 AM 60.5°F15.8°C 27.2°F-2.7°C 28% 1.2 mph NNE1.9 kmh NNE 3.5 mph5.6 kmh 29.98 in1015.2 mb - 0.00 in0.0 mm 0.00 in0.0 mm
10:30 AM 59.2°F15.1°C 26.9°F-2.8°C 29% Calm Calm 1.2 mph1.9 kmh 29.97 in1014.9 mb - 0.00 in0.0 mm 0.00 in0.0 mm
10:15 AM 58.1°F14.5°C 26.0°F-3.3°C 29% 4.6 mph N7.4 kmh N 5.8 mph9.3 kmh 29.98 in1015.2 mb - 0.00 in0.0 mm 0.00 in0.0 mm
10:00 AM 57.0°F13.9°C 26.6°F-3.0°C 31% 1.2 mph NNE1.9 kmh NNE 4.6 mph7.4 kmh 29.97 in1014.9 mb - 0.00 in0.0 mm 0.00 in0.0 mm
09:45 AM 55.8°F13.2°C 25.5°F-3.6°C 31% 2.3 mph NE3.7 kmh NE 5.8 mph9.3 kmh 29.97 in1014.9 mb - 0.00 in0.0 mm 0.00 in0.0 mm
09:30 AM 54.3°F12.4°C 25.8°F-3.4°C 33% 3.5 mph NNE5.6 kmh NNE 8.1 mph13.0 kmh 29.97 in1014.9 mb - 0.00 in0.0 mm 0.00 in0.0 mm
09:15 AM 52.5°F11.4°C 25.6°F-3.6°C 35% 2.3 mph NNE3.7 kmh NNE 4.6 mph7.4 kmh 29.96 in1014.6 mb - 0.00 in0.0 mm 0.00 in0.0 mm
09:00 AM 50.2°F10.1°C 25.5°F-3.6°C 38% 3.5 mph N5.6 kmh N 4.6 mph7.4 kmh 29.95 in1014.2 mb - 0.00 in0.0 mm 0.00 in0.0 mm
08:45 AM 47.4°F8.6°C 24.9°F-3.9°C 41% 2.3 mph N3.7 kmh N 4.6 mph7.4 kmh 29.96 in1014.6 mb - 0.00 in0.0 mm 0.00 in0.0 mm
08:30 AM 45.1°F7.3°C 23.9°F-4.5°C 43% Calm Calm 3.5 mph5.6 kmh 29.95 in1014.2 mb - 0.00 in0.0 mm 0.00 in0.0 mm
08:15 AM 44.2°F6.8°C 24.2°F-4.3°C 45% Calm Calm 1.2 mph1.9 kmh 29.95 in1014.2 mb - 0.00 in0.0 mm 0.00 in0.0 mm
08:00 AM 43.0°F6.1°C 24.1°F-4.4°C 47% 2.3 mph NNE3.7 kmh NNE 4.6 mph7.4 kmh 29.94 in1013.9 mb - 0.00 in0.0 mm 0.00 in0.0 mm
07:45 AM 40.1°F4.5°C 23.4°F-4.8°C 51% 2.3 mph N3.7 kmh N 3.5 mph5.6 kmh 29.94 in1013.9 mb - 0.00 in0.0 mm 0.00 in0.0 mm
07:30 AM 36.7°F2.6°C 22.4°F-5.3°C 56% 1.2 mph N1.9 kmh N 3.5 mph5.6 kmh 29.94 in1013.9 mb - 0.00 in0.0 mm 0.00 in0.0 mm
07:15 AM 35.4°F1.9°C 21.3°F-5.9°C 56% Calm Calm -- 29.93 in1013.5 mb - 0.00 in0.0 mm 0.00 in0.0 mm
07:00 AM 35.8°F2.1°C 22.0°F-5.6°C 57% Calm Calm -- 29.92 in1013.2 mb - 0.00 in0.0 mm 0.00 in0.0 mm
06:45 AM 36.0°F2.2°C 21.8°F-5.7°C 56% Calm Calm -- 29.92 in1013.2 mb - 0.00 in0.0 mm 0.00 in0.0 mm
06:30 AM 35.8°F2.1°C 21.6°F-5.8°C 56% Calm Calm -- 29.91 in1012.9 mb - 0.00 in0.0 mm 0.00 in0.0 mm
06:15 AM 36.3°F2.4°C 21.2°F-6.0°C 54% Calm Calm -- 29.91 in1012.9 mb - 0.00 in0.0 mm 0.00 in0.0 mm
06:00 AM 37.2°F2.9°C 21.6°F-5.8°C 53% Calm Calm -- 29.91 in1012.9 mb - 0.00 in0.0 mm 0.00 in0.0 mm
05:45 AM 38.1°F3.4°C 22.5°F-5.3°C 53% Calm Calm 1.2 mph1.9 kmh 29.91 in1012.9 mb - 0.00 in0.0 mm 0.00 in0.0 mm
05:30 AM 37.9°F3.3°C 22.8°F-5.1°C 54% Calm Calm -- 29.90 in1012.5 mb - 0.00 in0.0 mm 0.00 in0.0 mm
05:15 AM 36.9°F2.7°C 21.7°F-5.7°C 54% Calm Calm 1.2 mph1.9 kmh 29.89 in1012.2 mb - 0.00 in0.0 mm 0.00 in0.0 mm
05:00 AM 37.5°F3.1°C 22.4°F-5.3°C 54% Calm Calm -- 29.89 in1012.2 mb - 0.00 in0.0 mm 0.00 in0.0 mm
04:45 AM 38.1°F3.4°C 22.5°F-5.3°C 53% Calm Calm -- 29.89 in1012.2 mb - 0.00 in0.0 mm 0.00 in0.0 mm
04:30 AM 38.5°F3.6°C 22.8°F-5.1°C 53% Calm Calm -- 29.89 in1012.2 mb - 0.00 in0.0 mm 0.00 in0.0 mm
04:15 AM 38.7°F3.7°C 23.0°F-5.0°C 53% Calm Calm -- 29.89 in1012.2 mb - 0.00 in0.0 mm 0.00 in0.0 mm
04:00 AM 38.8°F3.8°C 23.2°F-4.9°C 53% Calm Calm -- 29.89 in1012.2 mb - 0.00 in0.0 mm 0.00 in0.0 mm
03:45 AM 39.0°F3.9°C 22.9°F-5.1°C 52% 1.2 mph SE1.9 kmh SE 1.2 mph1.9 kmh 29.90 in1012.5 mb - 0.00 in0.0 mm 0.00 in0.0 mm
03:30 AM 40.1°F4.5°C 22.9°F-5.1°C 50% Calm Calm -- 29.89 in1012.2 mb - 0.00 in0.0 mm 0.00 in0.0 mm
03:15 AM 41.0°F5.0°C 23.3°F-4.8°C 49% Calm Calm -- 29.90 in1012.5 mb - 0.00 in0.0 mm 0.00 in0.0 mm
03:00 AM 42.0°F5.6°C 23.7°F-4.6°C 48% Calm Calm -- 29.90 in1012.5 mb - 0.00 in0.0 mm 0.00 in0.0 mm
02:45 AM 42.4°F5.8°C 24.6°F-4.1°C 49% Calm Calm -- 29.90 in1012.5 mb - 0.00 in0.0 mm 0.00 in0.0 mm
02:30 AM 40.8°F4.9°C 23.6°F-4.7°C 50% Calm Calm 1.2 mph1.9 kmh 29.89 in1012.2 mb - 0.00 in0.0 mm 0.00 in0.0 mm
02:15 AM 39.7°F4.3°C 23.1°F-4.9°C 51% Calm Calm -- 29.89 in1012.2 mb - 0.00 in0.0 mm 0.00 in0.0 mm
02:00 AM 39.2°F4.0°C 22.1°F-5.5°C 50% Calm Calm -- 29.89 in1012.2 mb - 0.00 in0.0 mm 0.00 in0.0 mm
01:45 AM 39.9°F4.4°C 22.3°F-5.4°C 49% Calm Calm -- 29.89 in1012.2 mb - 0.00 in0.0 mm 0.00 in0.0 mm
01:30 AM 40.6°F4.8°C 22.9°F-5.1°C 49% Calm Calm -- 29.89 in1012.2 mb - 0.00 in0.0 mm 0.00 in0.0 mm
01:15 AM 40.3°F4.6°C 22.6°F-5.2°C 49% Calm Calm -- 29.89 in1012.2 mb - 0.00 in0.0 mm 0.00 in0.0 mm
01:00 AM 40.6°F4.8°C 22.5°F-5.3°C 48% Calm Calm -- 29.89 in1012.2 mb - 0.00 in0.0 mm 0.00 in0.0 mm
12:45 AM 40.8°F4.9°C 22.1°F-5.5°C 47% Calm Calm -- 29.89 in1012.2 mb - 0.00 in0.0 mm 0.00 in0.0 mm
12:30 AM 41.5°F5.3°C 22.3°F-5.4°C 46% Calm Calm -- 29.89 in1012.2 mb - 0.00 in0.0 mm 0.00 in0.0 mm
12:15 AM 42.4°F5.8°C 22.6°F-5.2°C 45% Calm Calm -- 29.90 in1012.5 mb - 0.00 in0.0 mm 0.00 in0.0 mm
12:00 AM 43.0°F6.1°C 23.1°F-4.9°C 45% Calm Calm -- 29.89 in1012.2 mb - 0.00 in0.0 mm 0.00 in0.0 mm